Time;durP1;ratioP1;P1;durP2;ratioP2;P2;SDS_P1;SDS_P2;PMS_P1;PMS_P2;Temp;Humidity;BMP_temperature;BMP_pressure;BME280_temperature;BME280_humidity;BME280_pressure;Samples;Min_cycle;Max_cycle;Signal;HPM_P1;HPM_P2
2022/04/26 03:36:40;;;;;;;67.77;38.80;;;;;;;2.40;86.86;97471.25;6228432;28;20229;-42
2022/04/26 03:39:43;;;;;;;95.30;49.67;;;;;;;2.40;87.22;97470.41;6222283;28;20228;-41
2022/04/26 03:42:45;;;;;;;119.23;61.10;;;;;;;2.40;87.06;97475.63;6205923;28;20233;-42
2022/04/26 03:45:48;;;;;;;120.60;63.60;;;;;;;2.38;87.07;97475.72;6204121;28;20233;-41
2022/04/26 03:48:51;;;;;;;139.97;70.43;;;;;;;2.37;86.88;97481.00;6204875;28;20236;-42
2022/04/26 03:51:53;;;;;;;141.27;75.53;;;;;;;2.33;86.85;97484.66;6205974;28;20228;-41
2022/04/26 03:54:55;;;;;;;145.73;77.37;;;;;;;2.33;86.74;97492.47;6211591;28;20235;-41
2022/04/26 03:57:57;;;;;;;137.50;72.83;;;;;;;2.35;86.69;97490.66;6228973;28;20648;-42
2022/04/26 04:01:00;;;;;;;130.33;71.93;;;;;;;2.37;86.77;97483.59;6227895;28;20697;-43
2022/04/26 04:04:03;;;;;;;130.80;70.23;;;;;;;2.41;86.83;97475.53;6228329;28;20248;-42
2022/04/26 04:07:05;;;;;;;132.33;69.33;;;;;;;2.49;86.78;97480.38;6228515;28;20277;-42
2022/04/26 04:10:07;;;;;;;123.30;66.50;;;;;;;2.53;86.58;97485.34;6227904;28;20721;-41
2022/04/26 04:13:10;;;;;;;119.13;61.60;;;;;;;2.59;86.69;97490.25;6227614;28;20273;-42
2022/04/26 04:16:12;;;;;;;119.87;62.67;;;;;;;2.67;86.66;97497.66;6226328;28;20720;-41
2022/04/26 04:19:24;;;;;;;111.57;60.20;;;;;;;2.74;86.57;97500.78;6198954;28;20610;-42
2022/04/26 04:22:27;;;;;;;111.00;60.77;;;;;;;2.79;86.41;97504.00;6204292;28;20685;-41
2022/04/26 04:25:29;;;;;;;98.33;54.60;;;;;;;2.93;86.55;97514.53;6203193;28;20739;-41
2022/04/26 04:28:36;;;;;;;103.47;55.77;;;;;;;3.08;86.55;97511.13;6204202;28;20290;-43
2022/04/26 04:31:38;;;;;;;103.53;56.00;;;;;;;3.14;86.13;97510.78;6203053;28;20278;-42
2022/04/26 04:34:40;;;;;;;84.03;48.93;;;;;;;3.20;85.90;97514.81;6204508;28;20610;-42
2022/04/26 04:37:42;;;;;;;81.57;46.23;;;;;;;3.37;86.20;97522.59;6204084;28;20232;-41
2022/04/26 04:40:50;;;;;;;77.23;44.20;;;;;;;3.48;85.71;97516.81;6202633;28;20324;-41
2022/04/26 04:43:52;;;;;;;84.13;47.53;;;;;;;3.63;85.73;97519.41;6203584;28;20239;-41
2022/04/26 04:47:00;;;;;;;70.97;42.37;;;;;;;3.82;85.35;97519.22;6203494;28;20290;-41
2022/04/26 04:50:03;;;;;;;85.07;47.10;;;;;;;3.94;85.38;97520.31;6203370;28;20609;-42
2022/04/26 04:53:05;;;;;;;75.43;43.33;;;;;;;4.16;85.29;97525.16;6203179;28;20238;-41
2022/04/26 04:56:09;;;;;;;53.47;32.87;;;;;;;4.24;85.25;97523.78;6203768;28;20319;-41
2022/04/26 04:59:11;;;;;;;62.30;35.70;;;;;;;4.37;85.52;97535.22;6204074;28;20237;-41
2022/04/26 05:02:13;;;;;;;42.07;24.83;;;;;;;4.58;85.27;97530.53;6203875;28;20235;-41
2022/04/26 05:05:16;;;;;;;112.53;60.20;;;;;;;4.67;84.97;97523.91;6203867;28;20372;-42
2022/04/26 05:08:18;;;;;;;52.63;31.83;;;;;;;4.82;84.51;97533.44;6202103;28;20345;-41
2022/04/26 05:11:20;;;;;;;49.23;30.50;;;;;;;4.97;85.03;97535.16;6203747;28;20224;-41
2022/04/26 05:14:29;;;;;;;31.93;21.60;;;;;;;5.23;84.45;97527.50;6180432;28;20244;-43
2022/04/26 05:17:31;;;;;;;24.60;16.33;;;;;;;5.47;84.33;97537.31;6203918;28;20239;-41
2022/04/26 05:20:37;;;;;;;26.80;17.37;;;;;;;5.78;83.71;97536.22;6203772;28;20232;-42
2022/04/26 05:27:03;;;;;;;19.70;14.77;;;;;;;6.39;82.35;97532.25;6228894;28;20247;-44
2022/04/26 05:30:06;;;;;;;27.57;17.93;;;;;;;6.65;82.28;97536.63;6207175;28;20223;-42
2022/04/26 05:33:08;;;;;;;25.50;16.57;;;;;;;6.93;81.96;97537.41;6207769;28;20221;-42
2022/04/26 05:36:10;;;;;;;24.10;17.23;;;;;;;7.21;81.11;97531.94;6206590;28;20716;-42
2022/04/26 05:39:13;;;;;;;23.53;16.27;;;;;;;7.41;80.76;97531.38;6206987;28;20247;-43
2022/04/26 05:42:18;;;;;;;19.30;14.00;;;;;;;7.53;80.59;97539.34;6207777;28;20204;-41
2022/04/26 05:45:21;;;;;;;17.17;13.37;;;;;;;7.58;80.50;97532.00;6206815;28;20232;-42
2022/04/26 05:48:23;;;;;;;16.10;11.97;;;;;;;7.70;79.88;97539.84;6209403;28;20769;-41
2022/04/26 05:51:25;;;;;;;14.20;10.93;;;;;;;7.75;78.86;97532.47;6228334;28;20240;-42
2022/04/26 05:54:28;;;;;;;14.37;11.27;;;;;;;7.91;77.56;97537.47;6221577;28;20712;-42
2022/04/26 05:57:31;;;;;;;12.17;10.03;;;;;;;7.95;75.79;97535.47;6214587;28;20266;-42
2022/04/26 06:00:33;;;;;;;13.03;10.80;;;;;;;8.11;75.21;97550.00;6207171;28;20779;-43
2022/04/26 06:03:36;;;;;;;14.60;10.67;;;;;;;8.21;74.30;97547.56;6206508;28;20239;-42
2022/04/26 06:06:38;;;;;;;12.47;9.90;;;;;;;8.28;73.62;97545.34;6206165;28;20612;-42
2022/04/26 06:09:41;;;;;;;11.00;9.40;;;;;;;8.23;73.09;97564.06;6206290;28;20248;-41
2022/04/26 06:12:44;;;;;;;13.47;10.83;;;;;;;8.14;72.79;97562.09;6206304;28;20377;-43
2022/04/26 06:15:47;;;;;;;11.70;9.83;;;;;;;8.10;72.55;97563.25;6206391;28;20272;-42
2022/04/26 06:18:49;;;;;;;9.33;8.43;;;;;;;8.14;72.75;97562.94;6206526;28;20236;-42
2022/04/26 06:21:51;;;;;;;11.47;9.60;;;;;;;8.10;71.95;97561.47;6206094;28;20243;-42
2022/04/26 06:24:54;;;;;;;12.60;9.40;;;;;;;8.20;71.48;97560.78;6209904;28;20239;-44
2022/04/26 06:27:57;;;;;;;11.80;8.80;;;;;;;8.34;71.49;97558.03;6204291;28;20239;-42
2022/04/26 06:31:00;;;;;;;9.60;8.60;;;;;;;8.46;70.12;97554.53;6206338;28;20240;-42
2022/04/26 06:34:02;;;;;;;10.43;8.77;;;;;;;8.60;69.67;97556.97;6205262;28;20243;-43
2022/04/26 06:37:04;;;;;;;11.43;8.97;;;;;;;8.79;69.23;97557.25;6205784;28;20722;-42
2022/04/26 06:40:06;;;;;;;11.97;9.60;;;;;;;8.80;68.21;97561.56;6205446;28;20320;-42
2022/04/26 06:43:11;;;;;;;11.43;9.33;;;;;;;8.75;68.63;97566.34;6182237;28;20247;-44
2022/04/26 06:46:13;;;;;;;12.43;9.90;;;;;;;8.66;68.18;97574.94;6203544;28;20234;-43
2022/04/26 06:49:16;;;;;;;9.83;8.30;;;;;;;8.61;67.93;97563.91;6199237;28;20393;-42
2022/04/26 06:52:18;;;;;;;10.47;7.93;;;;;;;8.67;68.35;97568.72;6206050;28;20262;-42
2022/04/26 06:55:21;;;;;;;9.30;8.23;;;;;;;8.78;67.99;97567.91;6216685;28;20238;-42
2022/04/26 06:58:23;;;;;;;9.40;8.37;;;;;;;8.84;68.43;97562.19;6204182;28;20244;-42
2022/04/26 07:01:25;;;;;;;9.67;8.20;;;;;;;8.88;67.63;97561.81;6205341;28;20376;-43
2022/04/26 07:04:40;;;;;;;10.17;7.97;;;;;;;8.89;67.70;97558.25;6205413;28;20231;-43
2022/04/26 07:07:43;;;;;;;9.23;6.97;;;;;;;8.97;67.86;97564.75;6204818;28;20238;-43
2022/04/26 07:10:45;;;;;;;8.70;7.80;;;;;;;9.04;67.30;97565.94;6205749;28;20233;-43
2022/04/26 07:13:48;;;;;;;11.40;9.03;;;;;;;8.99;67.39;97570.69;6205312;28;20291;-44
2022/04/26 07:16:50;;;;;;;8.77;7.70;;;;;;;8.91;67.36;97580.97;6205545;28;20239;-41
2022/04/26 07:19:53;;;;;;;8.83;7.93;;;;;;;8.94;66.78;97584.22;6205117;28;20296;-41
2022/04/26 07:23:02;;;;;;;8.30;7.33;;;;;;;8.99;67.45;97579.44;6208965;28;20712;-42
2022/04/26 07:26:04;;;;;;;7.40;6.70;;;;;;;9.02;66.55;97578.38;6219890;28;20308;-42
2022/04/26 07:29:08;;;;;;;8.47;7.50;;;;;;;9.07;66.84;97577.09;6204549;28;20255;-42
2022/04/26 07:32:10;;;;;;;8.53;7.50;;;;;;;9.18;66.39;97576.28;6205476;28;20724;-42
2022/04/26 07:35:13;;;;;;;7.67;6.87;;;;;;;9.27;66.13;97580.00;6203748;28;20231;-42
2022/04/26 07:38:15;;;;;;;7.50;6.73;;;;;;;9.36;65.81;97574.03;6204871;28;20698;-43
2022/04/26 07:41:17;;;;;;;8.27;6.97;;;;;;;9.41;64.92;97574.50;6205535;28;20240;-43
2022/04/26 07:44:20;;;;;;;10.90;8.40;;;;;;;9.44;65.25;97580.38;6203895;28;20258;-44
2022/04/26 07:47:26;;;;;;;7.47;6.70;;;;;;;9.47;64.63;97574.88;6205134;28;20723;-42
2022/04/26 07:50:28;;;;;;;8.10;6.77;;;;;;;9.49;64.77;97580.00;6201810;28;20235;-42
2022/04/26 07:53:30;;;;;;;6.27;5.67;;;;;;;9.52;64.67;97577.13;6211758;28;20309;-42
2022/04/26 07:56:33;;;;;;;6.80;5.87;;;;;;;9.49;63.97;97580.00;6224135;28;20734;-42
2022/04/26 07:59:35;;;;;;;6.50;5.80;;;;;;;9.46;63.19;97575.00;6203628;28;20246;-43
2022/04/26 08:02:38;;;;;;;7.13;5.90;;;;;;;9.48;63.97;97583.63;6204585;28;20258;-43
2022/04/26 08:05:40;;;;;;;7.13;5.80;;;;;;;9.46;63.58;97594.28;6204255;28;20325;-42
2022/04/26 08:08:43;;;;;;;6.80;6.10;;;;;;;9.44;63.30;97597.97;6204311;28;20237;-41
2022/04/26 08:11:46;;;;;;;6.87;6.17;;;;;;;9.40;64.04;97600.00;6195791;28;20292;-44
2022/04/26 08:14:48;;;;;;;7.87;6.17;;;;;;;9.36;64.00;97603.00;6197702;28;20242;-41
2022/04/26 08:17:50;;;;;;;6.50;5.80;;;;;;;9.34;64.72;97607.53;6200078;28;20300;-44
2022/04/26 08:20:52;;;;;;;7.00;6.20;;;;;;;9.33;65.29;97611.13;6183909;28;20298;-42
2022/04/26 08:27:30;;;;;;;5.97;5.37;;;;;;;9.33;64.98;97617.22;6192182;28;20319;-42
2022/04/26 08:30:33;;;;;;;5.77;5.17;;;;;;;9.37;64.41;97616.06;6207369;28;20236;-42
2022/04/26 08:33:36;;;;;;;6.93;5.63;;;;;;;9.43;64.28;97610.31;6217045;28;20298;-41
2022/04/26 08:36:38;;;;;;;6.13;5.00;;;;;;;9.43;63.68;97612.94;6208672;28;20266;-43
2022/04/26 08:39:40;;;;;;;6.13;5.53;;;;;;;9.47;63.54;97614.38;6197919;28;20790;-44
2022/04/26 08:42:46;;;;;;;6.80;5.40;;;;;;;9.54;63.82;97618.22;6203408;28;20246;-41
2022/04/26 08:45:49;;;;;;;8.10;6.27;;;;;;;9.58;63.92;97626.75;6203063;28;20615;-42
2022/04/26 08:52:12;;;;;;;6.27;5.50;;;;;;;9.59;63.49;97623.97;6203777;28;20233;-41
2022/04/26 08:55:15;;;;;;;5.73;5.07;;;;;;;9.66;63.96;97615.59;6203773;28;20352;-42
2022/04/26 08:58:20;;;;;;;6.33;5.60;;;;;;;9.72;63.41;97617.75;6203197;28;20351;-42
2022/04/26 09:01:26;;;;;;;6.47;5.53;;;;;;;9.79;63.09;97606.59;6207806;28;20255;-41
2022/04/26 09:04:29;;;;;;;6.07;5.37;;;;;;;9.85;62.35;97614.03;6207657;28;20263;-42
2022/04/26 09:07:34;;;;;;;6.60;5.70;;;;;;;9.79;62.59;97613.66;6205896;28;20236;-43
2022/04/26 09:10:36;;;;;;;7.50;5.80;;;;;;;9.86;62.92;97617.53;6207408;28;20324;-44
2022/04/26 09:13:40;;;;;;;6.70;4.93;;;;;;;9.92;62.39;97619.66;6207017;28;20239;-43
2022/04/26 09:16:42;;;;;;;6.27;5.67;;;;;;;10.02;62.11;97617.97;6208401;28;20577;-43
2022/04/26 09:19:49;;;;;;;6.90;5.40;;;;;;;10.11;62.92;97616.41;6206864;28;20291;-41
2022/04/26 09:22:59;;;;;;;6.80;6.00;;;;;;;10.15;62.81;97616.06;6206411;28;20232;-43
2022/04/26 09:26:08;;;;;;;9.07;7.53;;;;;;;10.08;63.71;97620.13;6207021;28;20229;-42
2022/04/26 09:29:19;;;;;;;7.07;6.20;;;;;;;9.90;64.42;97613.66;6208102;28;20243;-45
2022/04/26 09:32:23;;;;;;;7.43;6.57;;;;;;;9.93;65.77;97616.06;6207880;28;20720;-42
2022/04/26 09:35:31;;;;;;;7.87;7.07;;;;;;;9.94;67.60;97623.03;6207164;28;20254;-43
2022/04/26 09:38:34;;;;;;;7.63;6.67;;;;;;;9.93;68.79;97630.09;6207269;28;20378;-44
2022/04/26 09:41:37;;;;;;;6.87;6.17;;;;;;;9.93;68.72;97622.19;6207642;28;20224;-42
2022/04/26 09:44:40;;;;;;;7.87;7.07;;;;;;;9.92;70.17;97628.41;6207182;28;20806;-44
2022/04/26 09:47:45;;;;;;;10.07;7.33;;;;;;;9.87;70.72;97629.75;6206655;28;20229;-42
2022/04/26 09:50:49;;;;;;;8.50;7.53;;;;;;;9.89;71.72;97631.28;6229173;28;20323;-42
2022/04/26 09:53:52;;;;;;;8.80;7.80;;;;;;;9.85;72.81;97635.13;6224891;28;20231;-42
2022/04/26 09:56:54;;;;;;;13.87;7.77;;;;;;;9.79;72.68;97632.13;6230924;28;20236;-41
2022/04/26 09:59:59;;;;;;;8.53;7.57;;;;;;;9.79;71.48;97624.19;6231537;28;20243;-42
2022/04/26 10:03:09;;;;;;;9.60;8.43;;;;;;;9.86;72.20;97625.44;6231224;28;20634;-42
2022/04/26 10:06:16;;;;;;;8.53;7.53;;;;;;;9.88;72.43;97618.25;6232050;28;20236;-41
2022/04/26 10:09:19;;;;;;;10.03;8.53;;;;;;;9.77;72.57;97626.16;6231772;28;20220;-41
2022/04/26 10:12:22;;;;;;;10.70;8.33;;;;;;;9.78;72.56;97626.00;6224762;28;20634;-42
2022/04/26 10:15:24;;;;;;;11.00;8.90;;;;;;;9.81;72.62;97627.56;6230612;28;20262;-41
2022/04/26 10:18:31;;;;;;;9.50;8.50;;;;;;;9.91;73.12;97632.00;6233083;28;20226;-44
2022/04/26 10:21:39;;;;;;;10.43;8.57;;;;;;;9.99;74.01;97626.97;6230951;28;20254;-44
2022/04/26 10:25:08;;;;;;;9.63;8.70;;;;;;;10.02;73.87;97622.41;6229364;28;20938;-42
2022/04/26 10:28:28;;;;;;;9.50;8.50;;;;;;;10.00;72.40;97617.25;6230601;28;20282;-42
2022/04/26 10:31:44;;;;;;;11.90;8.70;;;;;;;10.06;73.30;97619.44;6230581;28;20222;-42
2022/04/26 10:34:46;;;;;;;10.37;8.90;;;;;;;10.09;74.07;97620.97;6215984;28;20239;-43
2022/04/26 10:38:08;;;;;;;10.37;9.00;;;;;;;10.09;73.46;97619.16;6206360;28;20291;-42
2022/04/26 10:41:10;;;;;;;10.63;9.40;;;;;;;10.16;72.86;97614.25;6206481;28;20735;-42
2022/04/26 10:44:21;;;;;;;12.70;10.33;;;;;;;10.27;72.60;97607.19;6207035;28;20716;-42
2022/04/26 10:47:26;;;;;;;12.77;9.50;;;;;;;10.43;72.09;97604.16;6206434;28;20269;-44
2022/04/26 10:50:32;;;;;;;11.00;8.90;;;;;;;10.49;72.11;97608.09;6205866;28;20351;-43
2022/04/26 10:53:45;;;;;;;11.60;9.23;;;;;;;10.57;71.85;97610.97;6206171;28;20236;-44
2022/04/26 10:56:48;;;;;;;10.13;9.07;;;;;;;10.71;72.07;97605.38;6205498;28;20751;-43
2022/04/26 11:00:02;;;;;;;11.17;9.50;;;;;;;10.83;71.90;97601.72;6205540;28;20331;-42
2022/04/26 11:03:06;;;;;;;12.10;10.20;;;;;;;10.73;70.77;97606.09;6204830;28;20232;-42
2022/04/26 11:06:08;;;;;;;10.73;9.37;;;;;;;10.71;71.38;97608.00;6229165;28;20668;-42
2022/04/26 11:09:13;;;;;;;10.70;9.53;;;;;;;10.75;70.56;97603.34;6229696;28;20297;-41
2022/04/26 11:12:18;;;;;;;12.77;10.00;;;;;;;10.79;70.96;97594.19;6224135;28;20236;-41
2022/04/26 11:15:25;;;;;;;11.00;9.13;;;;;;;10.84;71.56;97597.28;6227428;28;21179;-42
2022/04/26 11:18:27;;;;;;;9.60;8.60;;;;;;;10.89;71.48;97600.38;6205746;28;20347;-42
2022/04/26 11:21:30;;;;;;;11.60;10.03;;;;;;;10.96;72.27;97591.00;6205547;28;20323;-41
2022/04/26 11:28:11;;;;;;;10.87;8.87;;;;;;;11.08;71.31;97596.06;6205419;28;20312;-42
2022/04/26 11:31:13;;;;;;;11.57;10.20;;;;;;;11.25;70.36;97589.41;6204376;28;20761;-41
2022/04/26 11:34:15;;;;;;;11.10;9.90;;;;;;;11.51;69.65;97581.88;6204313;28;20226;-42
2022/04/26 11:37:17;;;;;;;12.37;9.73;;;;;;;11.71;67.76;97572.25;6205131;28;20236;-44
2022/04/26 11:40:29;;;;;;;15.67;10.63;;;;;;;11.96;67.00;97573.63;6204325;28;20719;-42
2022/04/26 11:43:33;;;;;;;10.97;8.70;;;;;;;12.22;65.04;97566.88;6203504;28;20606;-41
2022/04/26 11:46:36;;;;;;;8.90;8.00;;;;;;;12.79;64.36;97560.78;6204602;28;20235;-42
2022/04/26 11:49:41;;;;;;;8.93;7.93;;;;;;;13.43;61.95;97557.53;6204639;28;20241;-43
2022/04/26 11:52:45;;;;;;;10.00;7.53;;;;;;;14.00;58.78;97542.34;6204513;28;20246;-41
2022/04/26 11:55:53;;;;;;;9.60;8.60;;;;;;;14.07;59.29;97543.44;6203865;28;20368;-42
2022/04/26 11:58:56;;;;;;;9.20;7.80;;;;;;;14.37;59.36;97544.94;6203860;28;20278;-41
2022/04/26 12:01:58;;;;;;;9.17;7.20;;;;;;;14.29;54.45;97537.69;6204169;28;20241;-42
2022/04/26 12:05:00;;;;;;;8.60;6.23;;;;;;;14.55;54.30;97535.19;6204588;28;20741;-41
2022/04/26 12:08:03;;;;;;;6.73;6.03;;;;;;;14.91;53.79;97538.66;6203869;28;20232;-41
2022/04/26 12:11:22;;;;;;;7.43;6.20;;;;;;;14.66;52.23;97529.66;6203301;28;20234;-41
2022/04/26 12:14:24;;;;;;;7.83;6.97;;;;;;;14.45;53.40;97523.81;6180561;28;20232;-41
2022/04/26 12:17:29;;;;;;;7.93;7.13;;;;;;;14.83;53.54;97520.00;6188879;28;20316;-42
2022/04/26 12:20:33;;;;;;;10.93;8.10;;;;;;;15.17;52.46;97519.28;6203939;28;20252;-41
2022/04/26 12:23:35;;;;;;;9.43;7.60;;;;;;;15.61;52.53;97506.75;6204121;28;20232;-42
2022/04/26 12:26:49;;;;;;;8.47;7.47;;;;;;;15.62;51.24;97508.41;6204156;28;20228;-41
2022/04/26 12:29:52;;;;;;;7.63;6.07;;;;;;;15.37;49.20;97507.44;6203733;28;20236;-41
2022/04/26 12:32:54;;;;;;;6.50;5.83;;;;;;;14.98;49.70;97502.50;6203420;28;20228;-41
2022/04/26 12:36:01;;;;;;;6.33;5.33;;;;;;;15.19;51.35;97498.66;6206730;28;20247;-41
2022/04/26 12:39:04;;;;;;;6.83;6.13;;;;;;;14.45;50.61;97499.91;6207872;28;20233;-42
2022/04/26 12:42:07;;;;;;;7.53;6.00;;;;;;;14.24;51.67;97492.22;6232398;28;20671;-42
2022/04/26 12:45:21;;;;;;;7.50;6.23;;;;;;;14.47;51.32;97494.47;6233518;28;20199;-42
2022/04/26 13:48:08;;;;;;;10.70;8.63;;;;;;;17.54;46.07;97435.13;5892731;28;20236;-42
2022/04/26 13:51:11;;;;;;;12.83;9.00;;;;;;;17.68;45.04;97437.09;6231984;28;20208;-42
2022/04/26 13:54:13;;;;;;;9.07;7.47;;;;;;;18.07;45.34;97437.88;6216652;28;20586;-41
2022/04/26 13:57:16;;;;;;;9.33;8.43;;;;;;;18.07;44.20;97434.38;6229154;28;20235;-42
2022/04/26 14:00:18;;;;;;;12.00;7.77;;;;;;;20.19;40.26;97434.81;6209998;28;20329;-43
2022/04/26 14:03:20;;;;;;;9.00;7.73;;;;;;;19.41;41.37;97432.78;6210933;28;20258;-43
2022/04/26 14:06:22;;;;;;;7.63;6.90;;;;;;;22.99;35.43;97419.88;6207762;28;20232;-44
2022/04/26 14:09:24;;;;;;;9.97;7.27;;;;;;;23.52;33.70;97423.38;6205767;28;20731;-42
2022/04/26 14:12:26;;;;;;;9.97;8.40;;;;;;;22.88;32.93;97422.38;6206030;28;20282;-42
2022/04/26 14:22:09;;;;;;;7.13;6.43;;;;;;;22.98;32.68;97420.09;6205544;28;20263;-42
2022/04/26 14:25:12;;;;;;;8.20;7.33;;;;;;;23.09;32.49;97414.91;6227828;28;20235;-43
2022/04/26 14:28:14;;;;;;;9.50;7.40;;;;;;;22.08;35.73;97424.88;6208431;28;20259;-42
2022/04/26 14:31:16;;;;;;;9.70;6.63;;;;;;;23.85;32.38;97425.13;6206214;28;20239;-42
2022/04/26 14:34:18;;;;;;;8.93;7.87;;;;;;;24.67;29.98;97423.44;6206800;28;20239;-47
2022/04/26 14:37:22;;;;;;;8.13;7.30;;;;;;;25.50;29.21;97413.19;6204779;28;20323;-43
2022/04/26 14:40:24;;;;;;;7.37;6.60;;;;;;;24.73;29.91;97409.94;6205613;28;20361;-43
2022/04/26 14:43:27;;;;;;;8.77;7.87;;;;;;;24.44;29.58;97411.38;6206396;28;20307;-43
2022/04/26 14:46:29;;;;;;;9.47;7.60;;;;;;;21.41;35.15;97414.03;6203620;28;20294;-43
2022/04/26 14:49:37;;;;;;;8.13;7.33;;;;;;;20.69;37.19;97419.66;6220847;28;20236;-43
2022/04/26 14:52:40;;;;;;;7.40;6.70;;;;;;;24.28;31.05;97411.88;6183262;28;20823;-44
2022/04/26 14:55:42;;;;;;;7.70;6.90;;;;;;;26.99;27.68;97401.66;6207302;28;20450;-43
2022/04/26 14:58:44;;;;;;;6.40;5.80;;;;;;;27.25;26.70;97403.13;6205268;28;20765;-43
2022/04/26 15:01:49;;;;;;;6.57;5.87;;;;;;;27.69;26.26;97404.38;6205174;28;20323;-44
2022/04/26 15:04:52;;;;;;;6.67;6.07;;;;;;;25.15;29.25;97408.38;6208399;28;20237;-44
2022/04/26 15:11:14;;;;;;;7.57;6.33;;;;;;;20.35;37.58;97406.16;6206064;28;20277;-43
2022/04/26 15:17:37;;;;;;;6.97;6.27;;;;;;;18.07;41.95;97407.69;6203248;28;20316;-42
2022/04/26 15:20:41;;;;;;;8.83;7.10;;;;;;;17.46;43.88;97417.31;6205142;28;20254;-43
2022/04/26 15:23:43;;;;;;;8.50;7.67;;;;;;;17.06;45.03;97417.44;6214317;28;20301;-43
2022/04/26 15:26:45;;;;;;;7.73;7.03;;;;;;;16.37;46.19;97422.28;6207386;28;20224;-42
2022/04/26 15:29:48;;;;;;;7.83;6.97;;;;;;;16.33;46.96;97412.97;6204144;28;20712;-43
2022/04/26 15:32:50;;;;;;;8.17;7.33;;;;;;;16.15;47.05;97425.59;6205960;28;20329;-42
2022/04/26 15:35:52;;;;;;;10.90;8.70;;;;;;;15.80;48.06;97416.88;6204940;28;20290;-43
2022/04/26 15:38:57;;;;;;;9.67;7.90;;;;;;;16.59;46.11;97413.63;6204053;28;20248;-43
2022/04/26 15:42:02;;;;;;;8.70;7.80;;;;;;;16.70;45.83;97409.00;6204412;28;20238;-42
2022/04/26 15:45:04;;;;;;;7.67;6.83;;;;;;;16.95;45.52;97418.63;6203364;28;20269;-44
2022/04/26 15:48:06;;;;;;;7.83;6.10;;;;;;;16.80;46.98;97422.97;6228361;28;20725;-42
2022/04/26 15:51:09;;;;;;;9.30;8.30;;;;;;;16.29;48.10;97422.28;6227837;28;20262;-43
2022/04/26 15:54:11;;;;;;;8.37;7.47;;;;;;;15.91;48.64;97429.03;6216371;28;20228;-43
2022/04/26 15:57:13;;;;;;;13.50;8.53;;;;;;;15.86;48.99;97434.88;6226812;28;20243;-42
2022/04/26 16:00:16;;;;;;;10.73;8.10;;;;;;;15.48;49.02;97425.53;6203784;28;20248;-42
2022/04/26 16:03:18;;;;;;;10.10;7.67;;;;;;;15.52;48.89;97426.88;6204003;28;20560;-42
2022/04/26 16:06:21;;;;;;;8.50;7.47;;;;;;;15.49;49.05;97418.38;6203248;28;20256;-42
2022/04/26 16:22:45;;;;;;;7.90;6.50;;;;;;;14.45;52.88;97425.56;6215330;28;20264;-43
2022/04/26 16:25:47;;;;;;;8.93;7.33;;;;;;;14.53;52.74;97422.97;6227643;28;20231;-42
2022/04/26 16:28:54;;;;;;;8.00;7.20;;;;;;;14.55;52.63;97426.31;6227448;28;20597;-42
2022/04/26 16:31:56;;;;;;;8.07;7.23;;;;;;;14.31;53.46;97428.72;6228807;28;20236;-42
2022/04/26 16:34:58;;;;;;;9.17;8.20;;;;;;;14.02;54.68;97429.78;6228254;28;20769;-44
2022/04/26 16:38:01;;;;;;;8.50;7.17;;;;;;;13.83;54.83;97431.72;6227228;28;20244;-42
2022/04/26 16:41:05;;;;;;;8.30;7.47;;;;;;;13.71;55.08;97436.41;6228057;28;20314;-43
2022/04/26 16:44:07;;;;;;;7.57;5.87;;;;;;;13.54;56.93;97430.09;6226406;28;20994;-46
2022/04/26 16:47:12;;;;;;;9.07;7.57;;;;;;;13.37;57.38;97430.03;6219487;28;20318;-42
2022/04/26 16:50:14;;;;;;;7.73;6.93;;;;;;;13.30;57.09;97437.72;6226894;28;20222;-43
2022/04/26 16:53:16;;;;;;;5.73;4.80;;;;;;;13.21;59.26;97438.59;6220923;28;20297;-42
2022/04/26 16:56:19;;;;;;;6.27;5.63;;;;;;;13.18;61.02;97434.41;6225445;28;20231;-44
2022/04/26 16:59:23;;;;;;;5.40;4.90;;;;;;;13.12;60.32;97439.44;6227740;28;20259;-43
2022/04/26 17:02:25;;;;;;;5.17;4.67;;;;;;;13.06;61.40;97446.16;6227383;28;20374;-44
2022/04/26 17:05:28;;;;;;;5.37;4.87;;;;;;;12.99;62.39;97442.41;6224488;28;20679;-44
2022/04/26 17:08:30;;;;;;;5.03;4.53;;;;;;;12.93;62.89;97449.13;6226853;28;20381;-42
2022/04/26 17:11:42;;;;;;;5.40;4.90;;;;;;;12.87;63.51;97446.22;6225784;28;20304;-43
2022/04/26 17:14:46;;;;;;;7.43;5.80;;;;;;;12.82;64.11;97448.44;6224931;28;20235;-44
2022/04/26 17:17:49;;;;;;;7.80;5.03;;;;;;;12.62;65.22;97452.09;6226978;28;20759;-43
2022/04/26 17:20:58;;;;;;;6.23;4.87;;;;;;;12.46;66.08;97452.69;6203283;28;20263;-42
2022/04/26 17:24:04;;;;;;;5.57;5.03;;;;;;;12.30;66.92;97460.34;6207430;28;20374;-44
2022/04/26 17:27:06;;;;;;;6.00;5.30;;;;;;;12.15;67.35;97459.94;6229984;28;20574;-44
2022/04/26 17:30:10;;;;;;;5.20;4.30;;;;;;;12.05;67.78;97465.22;6207716;28;20223;-43
2022/04/26 17:33:14;;;;;;;5.50;5.00;;;;;;;12.01;68.04;97462.97;6212455;28;20739;-44
2022/04/26 17:36:17;;;;;;;7.07;5.60;;;;;;;11.92;68.66;97458.50;6211587;28;20219;-43
2022/04/26 17:39:20;;;;;;;5.83;5.03;;;;;;;11.81;69.24;97465.56;6209363;28;20617;-43
2022/04/26 17:42:24;;;;;;;6.67;4.80;;;;;;;11.72;69.55;97466.38;6207679;28;20231;-43
2022/04/26 17:45:37;;;;;;;5.23;4.00;;;;;;;11.65;70.32;97470.53;6207776;28;20247;-44
2022/04/26 17:48:39;;;;;;;4.37;3.97;;;;;;;11.64;70.16;97475.94;6206968;28;20371;-43
2022/04/26 17:51:41;;;;;;;6.20;5.03;;;;;;;11.61;70.28;97477.03;6207761;28;20259;-43
2022/04/26 17:58:04;;;;;;;5.90;4.43;;;;;;;11.44;71.04;97483.81;6211372;28;20239;-42
2022/04/26 18:01:06;;;;;;;5.23;4.57;;;;;;;11.36;71.39;97486.28;6207052;28;20282;-42
2022/04/26 18:04:09;;;;;;;6.23;4.87;;;;;;;11.27;71.86;97486.25;6206509;28;20882;-44
2022/04/26 18:07:11;;;;;;;4.83;4.33;;;;;;;11.21;72.49;97492.03;6206849;28;20237;-43
2022/04/26 18:10:13;;;;;;;5.27;4.77;;;;;;;11.20;72.42;97493.84;6207073;28;20240;-42
2022/04/26 18:13:15;;;;;;;7.60;4.53;;;;;;;11.16;72.93;97499.53;6206660;28;20475;-42
2022/04/26 18:16:24;;;;;;;7.50;4.50;;;;;;;11.10;72.94;97496.44;6206554;28;20349;-44
2022/04/26 18:19:28;;;;;;;5.10;4.60;;;;;;;11.07;73.28;97507.28;6206551;28;20268;-43
2022/04/26 18:22:30;;;;;;;4.57;4.17;;;;;;;11.06;73.12;97515.31;6206777;28;20238;-42
2022/04/26 18:28:57;;;;;;;6.57;4.73;;;;;;;10.97;73.78;97527.50;6207558;28;20237;-42
2022/04/26 18:32:00;;;;;;;4.60;4.20;;;;;;;10.95;73.69;97525.97;6206422;28;20295;-44
2022/04/26 18:35:02;;;;;;;4.80;4.40;;;;;;;10.94;73.63;97533.03;6205895;28;20261;-44
2022/04/26 18:38:04;;;;;;;7.50;5.23;;;;;;;10.90;74.21;97542.16;6206369;28;20230;-42
2022/04/26 18:41:10;;;;;;;7.60;5.20;;;;;;;10.82;74.90;97541.97;6205982;28;20230;-44
2022/04/26 18:44:13;;;;;;;4.97;4.57;;;;;;;10.73;74.99;97553.31;6206803;28;20232;-43
2022/04/26 18:47:16;;;;;;;5.50;5.00;;;;;;;10.68;75.69;97555.50;6204639;28;20241;-43
2022/04/26 18:50:18;;;;;;;5.10;4.53;;;;;;;10.67;75.42;97559.09;6205300;28;20247;-43
2022/04/26 18:53:20;;;;;;;5.07;4.57;;;;;;;10.67;75.77;97559.09;6213221;28;20233;-41
2022/04/26 18:56:22;;;;;;;5.27;4.37;;;;;;;10.69;75.34;97562.44;6211462;28;20377;-44
2022/04/26 18:59:25;;;;;;;5.43;4.93;;;;;;;10.67;75.37;97569.66;6206386;28;20327;-42
2022/04/26 19:02:27;;;;;;;5.10;4.60;;;;;;;10.65;75.73;97571.59;6204475;28;20236;-42
2022/04/26 19:05:30;;;;;;;5.27;4.63;;;;;;;10.64;75.84;97581.31;6206471;28;20660;-44
2022/04/26 19:08:33;;;;;;;5.10;4.60;;;;;;;10.61;76.14;97581.53;6205308;28;20695;-43
2022/04/26 19:14:55;;;;;;;5.00;4.60;;;;;;;10.48;76.87;97587.97;6206668;28;20704;-43
2022/04/26 19:17:57;;;;;;;5.80;5.20;;;;;;;10.43;77.12;97587.50;6204944;28;20236;-42
2022/04/26 19:20:59;;;;;;;5.97;5.23;;;;;;;10.42;76.80;97589.28;6206056;28;20697;-43
2022/04/26 19:24:02;;;;;;;8.00;5.30;;;;;;;10.39;77.37;97597.44;6204324;28;20228;-42
2022/04/26 19:27:04;;;;;;;5.53;5.03;;;;;;;10.36;77.71;97595.06;6228068;28;20687;-44
2022/04/26 19:30:07;;;;;;;5.50;5.00;;;;;;;10.32;77.79;97605.03;6205259;28;20228;-43
2022/04/26 19:33:09;;;;;;;5.60;5.10;;;;;;;10.32;77.98;97610.28;6205169;28;20236;-43
2022/04/26 19:36:12;;;;;;;6.23;5.10;;;;;;;10.32;78.28;97612.94;6204338;28;20213;-43
2022/04/26 19:39:15;;;;;;;6.57;5.77;;;;;;;10.27;78.50;97611.63;6203421;28;20340;-44
2022/04/26 19:42:17;;;;;;;5.67;5.07;;;;;;;10.20;79.05;97618.34;6203955;28;20676;-43
2022/04/26 19:45:19;;;;;;;5.40;4.90;;;;;;;10.14;79.02;97622.28;6204018;28;20759;-42
2022/04/26 19:48:21;;;;;;;6.67;5.40;;;;;;;10.12;80.06;97626.00;6204018;28;20708;-44